PWSweather.com
Personal Weather Stations
Station Observations
MART18
Seleziona Stato..., MartinsicuroIT italia

Seleziona Stato...MartinsicuroIT italia

Lat: 42.885169, Lon: 13.918447300000025

Elevation: 3

Station Type: Davis vantage vp2

branciuno67@gmail.com

High Low Average
Temperature 87.6°F30.9°C 76.3°F24.6°C 83.2°F28.4°C
Dew Point 75.6°F24.2°C 60.3°F15.7°C 68.3°F20.2°C
Winds 8.1 mph 13.0 kmh Calm Calm 4.0 mph SSW6.4 kmh SSW
Wind Gusts 14.1 mph22.7 kmh -- 7.0 mph11.3 kmh
Humidity 71% 50% 61%
Pressure 29.95 in1014.2 mb 29.89 in1012.2 mb -
Precipitation 0.00 in0.0 mm - -
Hour Temp Dew Point Humidity Winds Wind Gusts Pressure Precip Precip Rate Daily Precip Total
12:00 AM 80.8°F27.1°C 63.7°F17.6°C 56% 4.0 mph W6.4 kmh W 8.9 mph14.3 kmh 29.90 in1012.5 mb 0.00 in0.0 mm 0.00 in0.0 mm 0.00 in0.0 mm
12:05 AM 81.0°F27.2°C 63.3°F17.4°C 55% 4.0 mph W6.4 kmh W 8.1 mph13.0 kmh 29.90 in1012.5 mb 0.00 in0.0 mm 0.00 in0.0 mm 0.00 in0.0 mm
12:10 AM 80.8°F27.1°C 63.7°F17.6°C 56% 2.9 mph WNW4.7 kmh WNW 6.9 mph11.1 kmh 29.90 in1012.5 mb 0.00 in0.0 mm 0.00 in0.0 mm 0.00 in0.0 mm
12:15 AM 80.4°F26.9°C 63.3°F17.4°C 56% 2.9 mph WNW4.7 kmh WNW 6.9 mph11.1 kmh 29.90 in1012.5 mb 0.00 in0.0 mm 0.00 in0.0 mm 0.00 in0.0 mm
12:20 AM 80.2°F26.8°C 63.7°F17.6°C 57% 2.9 mph W4.7 kmh W 8.1 mph13.0 kmh 29.90 in1012.5 mb 0.00 in0.0 mm 0.00 in0.0 mm 0.00 in0.0 mm
12:25 AM 80.4°F26.9°C 63.3°F17.4°C 56% 4.0 mph NW6.4 kmh NW 10.1 mph16.3 kmh 29.91 in1012.9 mb 0.00 in0.0 mm 0.00 in0.0 mm 0.00 in0.0 mm
12:30 AM 80.6°F27.0°C 63.0°F17.2°C 55% 4.0 mph WNW6.4 kmh WNW 6.9 mph11.1 kmh 29.91 in1012.9 mb 0.00 in0.0 mm 0.00 in0.0 mm 0.00 in0.0 mm
12:35 AM 80.6°F27.0°C 63.0°F17.2°C 55% 4.0 mph WNW6.4 kmh WNW 8.1 mph13.0 kmh 29.91 in1012.9 mb 0.00 in0.0 mm 0.00 in0.0 mm 0.00 in0.0 mm
12:40 AM 80.4°F26.9°C 62.8°F17.1°C 55% 4.0 mph WNW6.4 kmh WNW 8.1 mph13.0 kmh 29.90 in1012.5 mb 0.00 in0.0 mm 0.00 in0.0 mm 0.00 in0.0 mm
12:45 AM 80.6°F27.0°C 62.4°F16.9°C 54% 4.0 mph NW6.4 kmh NW 9.0 mph14.5 kmh 29.90 in1012.5 mb 0.00 in0.0 mm 0.00 in0.0 mm 0.00 in0.0 mm
12:50 AM 80.8°F27.1°C 62.6°F17.0°C 54% 4.0 mph WNW6.4 kmh WNW 8.1 mph13.0 kmh 29.90 in1012.5 mb 0.00 in0.0 mm 0.00 in0.0 mm 0.00 in0.0 mm
12:55 AM 81.0°F27.2°C 62.2°F16.8°C 53% 4.0 mph W6.4 kmh W 8.1 mph13.0 kmh 29.90 in1012.5 mb 0.00 in0.0 mm 0.00 in0.0 mm 0.00 in0.0 mm
01:00 AM 81.0°F27.2°C 62.2°F16.8°C 53% 4.0 mph NW6.4 kmh NW 10.1 mph16.3 kmh 29.90 in1012.5 mb 0.00 in0.0 mm 0.00 in0.0 mm 0.00 in0.0 mm
01:05 AM 80.6°F27.0°C 61.9°F16.6°C 53% 4.0 mph NW6.4 kmh NW 8.1 mph13.0 kmh 29.90 in1012.5 mb 0.00 in0.0 mm 0.00 in0.0 mm 0.00 in0.0 mm
01:10 AM 80.4°F26.9°C 61.7°F16.5°C 53% 2.9 mph W4.7 kmh W 8.1 mph13.0 kmh 29.90 in1012.5 mb 0.00 in0.0 mm 0.00 in0.0 mm 0.00 in0.0 mm
01:15 AM 80.1°F26.7°C 61.9°F16.6°C 54% 2.9 mph WNW4.7 kmh WNW 6.9 mph11.1 kmh 29.90 in1012.5 mb 0.00 in0.0 mm 0.00 in0.0 mm 0.00 in0.0 mm
01:20 AM 79.5°F26.4°C 61.9°F16.6°C 55% 4.0 mph W6.4 kmh W 9.0 mph14.5 kmh 29.90 in1012.5 mb 0.00 in0.0 mm 0.00 in0.0 mm 0.00 in0.0 mm
01:25 AM 79.2°F26.2°C 61.5°F16.4°C 55% 4.0 mph WNW6.4 kmh WNW 8.9 mph14.3 kmh 29.90 in1012.5 mb 0.00 in0.0 mm 0.00 in0.0 mm 0.00 in0.0 mm
01:30 AM 79.3°F26.3°C 61.7°F16.5°C 55% 2.9 mph W4.7 kmh W 8.1 mph13.0 kmh 29.90 in1012.5 mb 0.00 in0.0 mm 0.00 in0.0 mm 0.00 in0.0 mm
01:35 AM 79.3°F26.3°C 61.7°F16.5°C 55% 2.9 mph WNW4.7 kmh WNW 10.1 mph16.3 kmh 29.90 in1012.5 mb 0.00 in0.0 mm 0.00 in0.0 mm 0.00 in0.0 mm
01:40 AM 79.7°F26.5°C 61.5°F16.4°C 54% 4.0 mph WNW6.4 kmh WNW 8.9 mph14.3 kmh 29.90 in1012.5 mb 0.00 in0.0 mm 0.00 in0.0 mm 0.00 in0.0 mm
01:45 AM 80.1°F26.7°C 61.3°F16.3°C 53% 4.0 mph WNW6.4 kmh WNW 6.0 mph9.7 kmh 29.90 in1012.5 mb 0.00 in0.0 mm 0.00 in0.0 mm 0.00 in0.0 mm
01:50 AM 79.9°F26.6°C 61.2°F16.2°C 53% 2.9 mph NW4.7 kmh NW 4.9 mph7.9 kmh 29.90 in1012.5 mb 0.00 in0.0 mm 0.00 in0.0 mm 0.00 in0.0 mm
01:55 AM 79.5°F26.4°C 61.3°F16.3°C 54% 2.9 mph NW4.7 kmh NW 6.9 mph11.1 kmh 29.90 in1012.5 mb 0.00 in0.0 mm 0.00 in0.0 mm 0.00 in0.0 mm
02:00 AM 79.2°F26.2°C 61.5°F16.4°C 55% 4.0 mph WNW6.4 kmh WNW 6.9 mph11.1 kmh 29.90 in1012.5 mb 0.00 in0.0 mm 0.00 in0.0 mm 0.00 in0.0 mm
02:05 AM 79.0°F26.1°C 61.0°F16.1°C 54% 4.0 mph NW6.4 kmh NW 8.1 mph13.0 kmh 29.90 in1012.5 mb 0.00 in0.0 mm 0.00 in0.0 mm 0.00 in0.0 mm
02:10 AM 79.3°F26.3°C 61.2°F16.2°C 54% 2.9 mph NW4.7 kmh NW 6.0 mph9.7 kmh 29.90 in1012.5 mb 0.00 in0.0 mm 0.00 in0.0 mm 0.00 in0.0 mm
02:15 AM 79.7°F26.5°C 61.0°F16.1°C 53% 2.9 mph WNW4.7 kmh WNW 6.9 mph11.1 kmh 29.90 in1012.5 mb 0.00 in0.0 mm 0.00 in0.0 mm 0.00 in0.0 mm
02:20 AM 79.5°F26.4°C 60.8°F16.0°C 53% 2.9 mph NW4.7 kmh NW 6.9 mph11.1 kmh 29.90 in1012.5 mb 0.00 in0.0 mm 0.00 in0.0 mm 0.00 in0.0 mm
02:25 AM 79.5°F26.4°C 60.8°F16.0°C 53% 2.9 mph NNW4.7 kmh NNW 6.0 mph9.7 kmh 29.90 in1012.5 mb 0.00 in0.0 mm 0.00 in0.0 mm 0.00 in0.0 mm
02:30 AM 79.7°F26.5°C 61.0°F16.1°C 53% 2.9 mph NW4.7 kmh NW 6.9 mph11.1 kmh 29.90 in1012.5 mb 0.00 in0.0 mm 0.00 in0.0 mm 0.00 in0.0 mm
02:35 AM 79.3°F26.3°C 60.8°F16.0°C 53% 2.9 mph WNW4.7 kmh WNW 6.9 mph11.1 kmh 29.89 in1012.2 mb 0.00 in0.0 mm 0.00 in0.0 mm 0.00 in0.0 mm
02:40 AM 79.2°F26.2°C 60.6°F15.9°C 53% 2.9 mph WNW4.7 kmh WNW 4.9 mph7.9 kmh 29.89 in1012.2 mb 0.00 in0.0 mm 0.00 in0.0 mm 0.00 in0.0 mm
02:45 AM 79.3°F26.3°C 60.8°F16.0°C 53% 2.9 mph WNW4.7 kmh WNW 8.9 mph14.3 kmh 29.89 in1012.2 mb 0.00 in0.0 mm 0.00 in0.0 mm 0.00 in0.0 mm
02:50 AM 79.7°F26.5°C 60.4°F15.8°C 52% 4.0 mph NW6.4 kmh NW 6.9 mph11.1 kmh 29.89 in1012.2 mb 0.00 in0.0 mm 0.00 in0.0 mm 0.00 in0.0 mm
02:55 AM 80.2°F26.8°C 60.4°F15.8°C 51% 4.0 mph NW6.4 kmh NW 8.1 mph13.0 kmh 29.89 in1012.2 mb 0.00 in0.0 mm 0.00 in0.0 mm 0.00 in0.0 mm
03:00 AM 80.2°F26.8°C 60.4°F15.8°C 51% 2.9 mph WNW4.7 kmh WNW 6.9 mph11.1 kmh 29.89 in1012.2 mb 0.00 in0.0 mm 0.00 in0.0 mm 0.00 in0.0 mm
03:05 AM 79.2°F26.2°C 60.6°F15.9°C 53% 2.0 mph NW3.2 kmh NW 8.1 mph13.0 kmh 29.89 in1012.2 mb 0.00 in0.0 mm 0.00 in0.0 mm 0.00 in0.0 mm
03:10 AM 78.3°F25.7°C 60.3°F15.7°C 54% 2.9 mph NW4.7 kmh NW 8.9 mph14.3 kmh 29.89 in1012.2 mb 0.00 in0.0 mm 0.00 in0.0 mm 0.00 in0.0 mm
03:15 AM 78.3°F25.7°C 60.3°F15.7°C 54% 2.9 mph WNW4.7 kmh WNW 6.0 mph9.7 kmh 29.89 in1012.2 mb 0.00 in0.0 mm 0.00 in0.0 mm 0.00 in0.0 mm
03:20 AM 78.3°F25.7°C 60.3°F15.7°C 54% 2.9 mph WNW4.7 kmh WNW 7.0 mph11.3 kmh 29.89 in1012.2 mb 0.00 in0.0 mm 0.00 in0.0 mm 0.00 in0.0 mm
03:25 AM 78.1°F25.6°C 60.6°F15.9°C 55% 2.9 mph NW4.7 kmh NW 9.0 mph14.5 kmh 29.89 in1012.2 mb 0.00 in0.0 mm 0.00 in0.0 mm 0.00 in0.0 mm
03:30 AM 78.3°F25.7°C 60.8°F16.0°C 55% 2.9 mph NW4.7 kmh NW 6.9 mph11.1 kmh 29.89 in1012.2 mb 0.00 in0.0 mm 0.00 in0.0 mm 0.00 in0.0 mm
03:35 AM 78.1°F25.6°C 60.6°F15.9°C 55% 2.9 mph W4.7 kmh W 4.9 mph7.9 kmh 29.89 in1012.2 mb 0.00 in0.0 mm 0.00 in0.0 mm 0.00 in0.0 mm
03:45 AM 78.4°F25.8°C 60.4°F15.8°C 54% 2.9 mph W4.7 kmh W 8.1 mph13.0 kmh 29.89 in1012.2 mb 0.00 in0.0 mm 0.00 in0.0 mm 0.00 in0.0 mm
03:50 AM 79.0°F26.1°C 60.4°F15.8°C 53% 2.9 mph WNW4.7 kmh WNW 6.9 mph11.1 kmh 29.89 in1012.2 mb 0.00 in0.0 mm 0.00 in0.0 mm 0.00 in0.0 mm
03:55 AM 79.0°F26.1°C 60.4°F15.8°C 53% 2.9 mph NW4.7 kmh NW 4.0 mph6.4 kmh 29.90 in1012.5 mb 0.00 in0.0 mm 0.00 in0.0 mm 0.00 in0.0 mm
04:00 AM 78.4°F25.8°C 60.4°F15.8°C 54% 2.0 mph NW3.2 kmh NW 4.9 mph7.9 kmh 29.90 in1012.5 mb 0.00 in0.0 mm 0.00 in0.0 mm 0.00 in0.0 mm
04:05 AM 77.9°F25.5°C 60.4°F15.8°C 55% 2.0 mph NW3.2 kmh NW 4.0 mph6.4 kmh 29.89 in1012.2 mb 0.00 in0.0 mm 0.00 in0.0 mm 0.00 in0.0 mm
04:10 AM 77.5°F25.3°C 60.6°F15.9°C 56% 2.9 mph WNW4.7 kmh WNW 6.0 mph9.7 kmh 29.89 in1012.2 mb 0.00 in0.0 mm 0.00 in0.0 mm 0.00 in0.0 mm
04:15 AM 77.0°F25.0°C 60.6°F15.9°C 57% 2.9 mph WNW4.7 kmh WNW 6.0 mph9.7 kmh 29.89 in1012.2 mb 0.00 in0.0 mm 0.00 in0.0 mm 0.00 in0.0 mm
04:20 AM 76.6°F24.8°C 60.3°F15.7°C 57% 2.9 mph NW4.7 kmh NW 6.9 mph11.1 kmh 29.89 in1012.2 mb 0.00 in0.0 mm 0.00 in0.0 mm 0.00 in0.0 mm
04:25 AM 76.5°F24.7°C 60.6°F15.9°C 58% 2.9 mph NW4.7 kmh NW 6.9 mph11.1 kmh 29.90 in1012.5 mb 0.00 in0.0 mm 0.00 in0.0 mm 0.00 in0.0 mm
04:30 AM 76.3°F24.6°C 60.4°F15.8°C 58% 2.9 mph WNW4.7 kmh WNW 6.9 mph11.1 kmh 29.90 in1012.5 mb 0.00 in0.0 mm 0.00 in0.0 mm 0.00 in0.0 mm
04:35 AM 76.5°F24.7°C 60.6°F15.9°C 58% 2.9 mph NW4.7 kmh NW 6.9 mph11.1 kmh 29.90 in1012.5 mb 0.00 in0.0 mm 0.00 in0.0 mm 0.00 in0.0 mm
04:40 AM 76.6°F24.8°C 60.8°F16.0°C 58% 2.9 mph WNW4.7 kmh WNW 6.9 mph11.1 kmh 29.90 in1012.5 mb 0.00 in0.0 mm 0.00 in0.0 mm 0.00 in0.0 mm
04:45 AM 76.6°F24.8°C 60.3°F15.7°C 57% 2.0 mph NW3.2 kmh NW 4.0 mph6.4 kmh 29.90 in1012.5 mb 0.00 in0.0 mm 0.00 in0.0 mm 0.00 in0.0 mm
04:50 AM 76.6°F24.8°C 60.3°F15.7°C 57% 2.0 mph WNW3.2 kmh WNW 4.9 mph7.9 kmh 29.90 in1012.5 mb 0.00 in0.0 mm 0.00 in0.0 mm 0.00 in0.0 mm
04:55 AM 76.5°F24.7°C 60.6°F15.9°C 58% 2.0 mph NNW3.2 kmh NNW 6.9 mph11.1 kmh 29.90 in1012.5 mb 0.00 in0.0 mm 0.00 in0.0 mm 0.00 in0.0 mm
05:00 AM 76.6°F24.8°C 60.8°F16.0°C 58% 2.0 mph W3.2 kmh W 4.0 mph6.4 kmh 29.89 in1012.2 mb 0.00 in0.0 mm 0.00 in0.0 mm 0.00 in0.0 mm
05:05 AM 76.8°F24.9°C 60.4°F15.8°C 57% 2.0 mph NW3.2 kmh NW 4.0 mph6.4 kmh 29.90 in1012.5 mb 0.00 in0.0 mm 0.00 in0.0 mm 0.00 in0.0 mm
05:10 AM 77.0°F25.0°C 60.6°F15.9°C 57% 2.0 mph NW3.2 kmh NW 4.9 mph7.9 kmh 29.89 in1012.2 mb 0.00 in0.0 mm 0.00 in0.0 mm 0.00 in0.0 mm
05:15 AM 76.8°F24.9°C 60.4°F15.8°C 57% 2.0 mph WNW3.2 kmh WNW 8.1 mph13.0 kmh 29.90 in1012.5 mb 0.00 in0.0 mm 0.00 in0.0 mm 0.00 in0.0 mm
05:20 AM 76.8°F24.9°C 60.4°F15.8°C 57% 2.9 mph NW4.7 kmh NW 6.9 mph11.1 kmh 29.90 in1012.5 mb 0.00 in0.0 mm 0.00 in0.0 mm 0.00 in0.0 mm
05:25 AM 76.6°F24.8°C 60.8°F16.0°C 58% 2.9 mph WNW4.7 kmh WNW 6.9 mph11.1 kmh 29.90 in1012.5 mb 0.00 in0.0 mm 0.00 in0.0 mm 0.00 in0.0 mm
05:30 AM 76.8°F24.9°C 61.0°F16.1°C 58% 2.9 mph NW4.7 kmh NW 4.0 mph6.4 kmh 29.90 in1012.5 mb 0.00 in0.0 mm 0.00 in0.0 mm 0.00 in0.0 mm
05:35 AM 76.8°F24.9°C 61.0°F16.1°C 58% 2.9 mph NNW4.7 kmh NNW 6.9 mph11.1 kmh 29.90 in1012.5 mb 0.00 in0.0 mm 0.00 in0.0 mm 0.00 in0.0 mm
05:40 AM 76.8°F24.9°C 61.0°F16.1°C 58% 2.9 mph NW4.7 kmh NW 6.9 mph11.1 kmh 29.90 in1012.5 mb 0.00 in0.0 mm 0.00 in0.0 mm 0.00 in0.0 mm
05:45 AM 76.8°F24.9°C 61.0°F16.1°C 58% 2.9 mph NW4.7 kmh NW 6.9 mph11.1 kmh 29.90 in1012.5 mb 0.00 in0.0 mm 0.00 in0.0 mm 0.00 in0.0 mm
05:50 AM 77.2°F25.1°C 61.3°F16.3°C 58% 2.9 mph NW4.7 kmh NW 6.9 mph11.1 kmh 29.90 in1012.5 mb 0.00 in0.0 mm 0.00 in0.0 mm 0.00 in0.0 mm
05:55 AM 77.2°F25.1°C 61.3°F16.3°C 58% 2.9 mph NW4.7 kmh NW 6.9 mph11.1 kmh 29.90 in1012.5 mb 0.00 in0.0 mm 0.00 in0.0 mm 0.00 in0.0 mm
06:00 AM 77.4°F25.2°C 61.3°F16.3°C 58% 2.9 mph W4.7 kmh W 6.9 mph11.1 kmh 29.90 in1012.5 mb 0.00 in0.0 mm 0.00 in0.0 mm 0.00 in0.0 mm
06:05 AM 77.2°F25.1°C 61.3°F16.3°C 58% 2.9 mph NNW4.7 kmh NNW 8.1 mph13.0 kmh 29.90 in1012.5 mb 0.00 in0.0 mm 0.00 in0.0 mm 0.00 in0.0 mm
06:10 AM 77.4°F25.2°C 61.3°F16.3°C 58% 2.9 mph NW4.7 kmh NW 8.1 mph13.0 kmh 29.90 in1012.5 mb 0.00 in0.0 mm 0.00 in0.0 mm 0.00 in0.0 mm
06:15 AM 77.4°F25.2°C 61.3°F16.3°C 58% 2.9 mph NW4.7 kmh NW 8.9 mph14.3 kmh 29.90 in1012.5 mb 0.00 in0.0 mm 0.00 in0.0 mm 0.00 in0.0 mm
06:20 AM 77.5°F25.3°C 61.5°F16.4°C 58% 2.9 mph W4.7 kmh W 8.9 mph14.3 kmh 29.90 in1012.5 mb 0.00 in0.0 mm 0.00 in0.0 mm 0.00 in0.0 mm
06:25 AM 78.1°F25.6°C 61.5°F16.4°C 57% 4.0 mph WNW6.4 kmh WNW 8.9 mph14.3 kmh 29.90 in1012.5 mb 0.00 in0.0 mm 0.00 in0.0 mm 0.00 in0.0 mm
06:30 AM 78.8°F26.0°C 62.2°F16.8°C 57% 2.9 mph NW4.7 kmh NW 6.0 mph9.7 kmh 29.90 in1012.5 mb 0.00 in0.0 mm 0.00 in0.0 mm 0.00 in0.0 mm
06:35 AM 79.0°F26.1°C 62.4°F16.9°C 57% 2.9 mph NW4.7 kmh NW 6.0 mph9.7 kmh 29.90 in1012.5 mb 0.00 in0.0 mm 0.00 in0.0 mm 0.00 in0.0 mm
06:40 AM 79.5°F26.4°C 62.4°F16.9°C 56% 2.9 mph NW4.7 kmh NW 8.1 mph13.0 kmh 29.90 in1012.5 mb 0.00 in0.0 mm 0.00 in0.0 mm 0.00 in0.0 mm
06:45 AM 80.2°F26.8°C 62.6°F17.0°C 55% 4.0 mph NW6.4 kmh NW 6.9 mph11.1 kmh 29.91 in1012.9 mb 0.00 in0.0 mm 0.00 in0.0 mm 0.00 in0.0 mm
06:50 AM 80.8°F27.1°C 62.6°F17.0°C 54% 4.0 mph W6.4 kmh W 10.1 mph16.3 kmh 29.90 in1012.5 mb 0.00 in0.0 mm 0.00 in0.0 mm 0.00 in0.0 mm
06:55 AM 81.0°F27.2°C 62.8°F17.1°C 54% 4.0 mph NW6.4 kmh NW 8.9 mph14.3 kmh 29.91 in1012.9 mb 0.00 in0.0 mm 0.00 in0.0 mm 0.00 in0.0 mm
07:00 AM 81.1°F27.3°C 63.0°F17.2°C 54% 4.0 mph NW6.4 kmh NW 8.1 mph13.0 kmh 29.91 in1012.9 mb 0.00 in0.0 mm 0.00 in0.0 mm 0.00 in0.0 mm
07:05 AM 81.1°F27.3°C 63.0°F17.2°C 54% 4.0 mph NW6.4 kmh NW 10.1 mph16.3 kmh 29.91 in1012.9 mb 0.00 in0.0 mm 0.00 in0.0 mm 0.00 in0.0 mm
07:10 AM 81.3°F27.4°C 63.1°F17.3°C 54% 4.9 mph WNW7.9 kmh WNW 8.9 mph14.3 kmh 29.91 in1012.9 mb 0.00 in0.0 mm 0.00 in0.0 mm 0.00 in0.0 mm
07:15 AM 81.9°F27.7°C 63.5°F17.5°C 54% 4.0 mph NW6.4 kmh NW 8.9 mph14.3 kmh 29.91 in1012.9 mb 0.00 in0.0 mm 0.00 in0.0 mm 0.00 in0.0 mm
07:20 AM 82.6°F28.1°C 63.7°F17.6°C 53% 2.9 mph WNW4.7 kmh WNW 8.9 mph14.3 kmh 29.91 in1012.9 mb 0.00 in0.0 mm 0.00 in0.0 mm 0.00 in0.0 mm
07:25 AM 82.9°F28.3°C 63.5°F17.5°C 52% 4.0 mph WNW6.4 kmh WNW 8.9 mph14.3 kmh 29.91 in1012.9 mb 0.00 in0.0 mm 0.00 in0.0 mm 0.00 in0.0 mm
07:30 AM 83.5°F28.6°C 63.5°F17.5°C 51% 4.0 mph W6.4 kmh W 6.9 mph11.1 kmh 29.91 in1012.9 mb 0.00 in0.0 mm 0.00 in0.0 mm 0.00 in0.0 mm
07:35 AM 83.8°F28.8°C 63.9°F17.7°C 51% 4.0 mph N6.4 kmh N 8.1 mph13.0 kmh 29.91 in1012.9 mb 0.00 in0.0 mm 0.00 in0.0 mm 0.00 in0.0 mm
07:40 AM 84.0°F28.9°C 64.6°F18.1°C 52% 2.9 mph NNW4.7 kmh NNW 8.9 mph14.3 kmh 29.91 in1012.9 mb 0.00 in0.0 mm 0.00 in0.0 mm 0.00 in0.0 mm
07:45 AM 84.0°F28.9°C 64.6°F18.1°C 52% 4.0 mph W6.4 kmh W 6.9 mph11.1 kmh 29.91 in1012.9 mb 0.00 in0.0 mm 0.00 in0.0 mm 0.00 in0.0 mm
07:50 AM 84.0°F28.9°C 65.1°F18.4°C 53% 4.0 mph NW6.4 kmh NW 6.9 mph11.1 kmh 29.91 in1012.9 mb 0.00 in0.0 mm 0.00 in0.0 mm 0.00 in0.0 mm
07:55 AM 84.2°F29.0°C 64.6°F18.1°C 52% 4.0 mph NW6.4 kmh NW 8.1 mph13.0 kmh 29.91 in1012.9 mb 0.00 in0.0 mm 0.00 in0.0 mm 0.00 in0.0 mm
08:00 AM 84.6°F29.2°C 64.9°F18.3°C 52% 2.9 mph W4.7 kmh W 6.9 mph11.1 kmh 29.91 in1012.9 mb 0.00 in0.0 mm 0.00 in0.0 mm 0.00 in0.0 mm
08:05 AM 84.7°F29.3°C 65.1°F18.4°C 52% 2.9 mph N4.7 kmh N 9.0 mph14.5 kmh 29.91 in1012.9 mb 0.00 in0.0 mm 0.00 in0.0 mm 0.00 in0.0 mm
08:10 AM 84.9°F29.4°C 65.3°F18.5°C 52% 4.0 mph WNW6.4 kmh WNW 6.9 mph11.1 kmh 29.91 in1012.9 mb 0.00 in0.0 mm 0.00 in0.0 mm 0.00 in0.0 mm
08:15 AM 85.3°F29.6°C 65.7°F18.7°C 52% 2.9 mph N4.7 kmh N 6.0 mph9.7 kmh 29.91 in1012.9 mb 0.00 in0.0 mm 0.00 in0.0 mm 0.00 in0.0 mm
08:20 AM 85.6°F29.8°C 65.5°F18.6°C 51% 2.9 mph N4.7 kmh N 4.9 mph7.9 kmh 29.92 in1013.2 mb 0.00 in0.0 mm 0.00 in0.0 mm 0.00 in0.0 mm
08:25 AM 85.8°F29.9°C 65.7°F18.7°C 51% 2.9 mph NNW4.7 kmh NNW 8.1 mph13.0 kmh 29.92 in1013.2 mb 0.00 in0.0 mm 0.00 in0.0 mm 0.00 in0.0 mm
08:30 AM 85.8°F29.9°C 65.7°F18.7°C 51% 2.9 mph N4.7 kmh N 6.9 mph11.1 kmh 29.92 in1013.2 mb 0.00 in0.0 mm 0.00 in0.0 mm 0.00 in0.0 mm
08:35 AM 86.4°F30.2°C 65.5°F18.6°C 50% 2.9 mph WNW4.7 kmh WNW 8.1 mph13.0 kmh 29.92 in1013.2 mb 0.00 in0.0 mm 0.00 in0.0 mm 0.00 in0.0 mm
08:40 AM 86.4°F30.2°C 65.5°F18.6°C 50% 2.9 mph N4.7 kmh N 8.1 mph13.0 kmh 29.92 in1013.2 mb 0.00 in0.0 mm 0.00 in0.0 mm 0.00 in0.0 mm
08:45 AM 86.5°F30.3°C 66.7°F19.3°C 52% 4.0 mph N6.4 kmh N 8.9 mph14.3 kmh 29.92 in1013.2 mb 0.00 in0.0 mm 0.00 in0.0 mm 0.00 in0.0 mm
08:50 AM 86.2°F30.1°C 67.1°F19.5°C 53% 4.0 mph NE6.4 kmh NE 8.1 mph13.0 kmh 29.92 in1013.2 mb 0.00 in0.0 mm 0.00 in0.0 mm 0.00 in0.0 mm
08:55 AM 86.2°F30.1°C 68.2°F20.1°C 55% 4.9 mph N7.9 kmh N 9.0 mph14.5 kmh 29.92 in1013.2 mb 0.00 in0.0 mm 0.00 in0.0 mm 0.00 in0.0 mm
09:00 AM 86.0°F30.0°C 68.9°F20.5°C 57% 4.0 mph N6.4 kmh N 8.9 mph14.3 kmh 29.92 in1013.2 mb 0.00 in0.0 mm 0.00 in0.0 mm 0.00 in0.0 mm
09:05 AM 86.4°F30.2°C 70.3°F21.3°C 59% 2.9 mph NNW4.7 kmh NNW 4.9 mph7.9 kmh 29.92 in1013.2 mb 0.00 in0.0 mm 0.00 in0.0 mm 0.00 in0.0 mm
09:10 AM 86.4°F30.2°C 70.9°F21.6°C 60% 2.9 mph NE4.7 kmh NE 10.1 mph16.3 kmh 29.92 in1013.2 mb 0.00 in0.0 mm 0.00 in0.0 mm 0.00 in0.0 mm
09:15 AM 86.2°F30.1°C 71.1°F21.7°C 61% 4.9 mph NE7.9 kmh NE 11.0 mph17.7 kmh 29.93 in1013.5 mb 0.00 in0.0 mm 0.00 in0.0 mm 0.00 in0.0 mm
09:20 AM 86.0°F30.0°C 71.1°F21.7°C 61% 6.0 mph NE9.7 kmh NE 10.1 mph16.3 kmh 29.93 in1013.5 mb 0.00 in0.0 mm 0.00 in0.0 mm 0.00 in0.0 mm
09:25 AM 86.0°F30.0°C 71.1°F21.7°C 61% 6.0 mph NNE9.7 kmh NNE 10.1 mph16.3 kmh 29.93 in1013.5 mb 0.00 in0.0 mm 0.00 in0.0 mm 0.00 in0.0 mm
09:30 AM 85.6°F29.8°C 71.1°F21.7°C 62% 6.9 mph NE11.1 kmh NE 13.0 mph20.9 kmh 29.93 in1013.5 mb 0.00 in0.0 mm 0.00 in0.0 mm 0.00 in0.0 mm
09:35 AM 85.6°F29.8°C 71.6°F22.0°C 63% 6.9 mph NE11.1 kmh NE 14.1 mph22.7 kmh 29.93 in1013.5 mb 0.00 in0.0 mm 0.00 in0.0 mm 0.00 in0.0 mm
09:40 AM 85.6°F29.8°C 71.6°F22.0°C 63% 6.9 mph NE11.1 kmh NE 14.1 mph22.7 kmh 29.93 in1013.5 mb 0.00 in0.0 mm 0.00 in0.0 mm 0.00 in0.0 mm
09:45 AM 85.5°F29.7°C 72.0°F22.2°C 64% 6.9 mph NE11.1 kmh NE 12.1 mph19.5 kmh 29.93 in1013.5 mb 0.00 in0.0 mm 0.00 in0.0 mm 0.00 in0.0 mm
09:50 AM 85.5°F29.7°C 72.0°F22.2°C 64% 6.9 mph NNE11.1 kmh NNE 12.1 mph19.5 kmh 29.93 in1013.5 mb 0.00 in0.0 mm 0.00 in0.0 mm 0.00 in0.0 mm
09:55 AM 85.8°F29.9°C 72.1°F22.3°C 64% 6.0 mph ENE9.7 kmh ENE 12.1 mph19.5 kmh 29.93 in1013.5 mb 0.00 in0.0 mm 0.00 in0.0 mm 0.00 in0.0 mm
10:00 AM 85.6°F29.8°C 72.1°F22.3°C 64% 6.9 mph NE11.1 kmh NE 13.0 mph20.9 kmh 29.94 in1013.9 mb 0.00 in0.0 mm 0.00 in0.0 mm 0.00 in0.0 mm
10:05 AM 85.6°F29.8°C 72.5°F22.5°C 65% 6.9 mph NE11.1 kmh NE 12.1 mph19.5 kmh 29.94 in1013.9 mb 0.00 in0.0 mm 0.00 in0.0 mm 0.00 in0.0 mm
10:10 AM 85.6°F29.8°C 72.5°F22.5°C 65% 8.1 mph NE13.0 kmh NE 14.1 mph22.7 kmh 29.94 in1013.9 mb 0.00 in0.0 mm 0.00 in0.0 mm 0.00 in0.0 mm
10:15 AM 85.6°F29.8°C 72.5°F22.5°C 65% 8.1 mph NNE13.0 kmh NNE 13.0 mph20.9 kmh 29.94 in1013.9 mb 0.00 in0.0 mm 0.00 in0.0 mm 0.00 in0.0 mm
10:20 AM 85.6°F29.8°C 72.5°F22.5°C 65% 8.1 mph ENE13.0 kmh ENE 12.1 mph19.5 kmh 29.94 in1013.9 mb 0.00 in0.0 mm 0.00 in0.0 mm 0.00 in0.0 mm
10:25 AM 85.8°F29.9°C 73.2°F22.9°C 66% 6.9 mph NE11.1 kmh NE 12.1 mph19.5 kmh 29.94 in1013.9 mb 0.00 in0.0 mm 0.00 in0.0 mm 0.00 in0.0 mm
10:30 AM 86.0°F30.0°C 72.9°F22.7°C 65% 6.9 mph N11.1 kmh N 12.1 mph19.5 kmh 29.94 in1013.9 mb 0.00 in0.0 mm 0.00 in0.0 mm 0.00 in0.0 mm
10:35 AM 85.8°F29.9°C 72.7°F22.6°C 65% 6.9 mph ENE11.1 kmh ENE 12.1 mph19.5 kmh 29.94 in1013.9 mb 0.00 in0.0 mm 0.00 in0.0 mm 0.00 in0.0 mm
10:40 AM 86.0°F30.0°C 72.9°F22.7°C 65% 6.9 mph N11.1 kmh N 12.1 mph19.5 kmh 29.94 in1013.9 mb 0.00 in0.0 mm 0.00 in0.0 mm 0.00 in0.0 mm
10:45 AM 86.2°F30.1°C 73.0°F22.8°C 65% 6.0 mph NNE9.7 kmh NNE 12.1 mph19.5 kmh 29.94 in1013.9 mb 0.00 in0.0 mm 0.00 in0.0 mm 0.00 in0.0 mm
10:50 AM 86.0°F30.0°C 72.9°F22.7°C 65% 6.9 mph NE11.1 kmh NE 12.1 mph19.5 kmh 29.94 in1013.9 mb 0.00 in0.0 mm 0.00 in0.0 mm 0.00 in0.0 mm
10:55 AM 86.0°F30.0°C 72.9°F22.7°C 65% 8.1 mph N13.0 kmh N 13.0 mph20.9 kmh 29.94 in1013.9 mb 0.00 in0.0 mm 0.00 in0.0 mm 0.00 in0.0 mm
11:00 AM 85.6°F29.8°C 73.0°F22.8°C 66% 8.1 mph 13.0 kmh 13.0 mph20.9 kmh 29.94 in1013.9 mb 0.00 in0.0 mm 0.00 in0.0 mm 0.00 in0.0 mm
11:05 AM 86.0°F30.0°C 73.2°F22.9°C 66% 6.9 mph N11.1 kmh N 12.1 mph19.5 kmh 29.95 in1014.2 mb 0.00 in0.0 mm 0.00 in0.0 mm 0.00 in0.0 mm
11:10 AM 85.8°F29.9°C 73.2°F22.9°C 66% 6.9 mph NE11.1 kmh NE 10.1 mph16.3 kmh 29.94 in1013.9 mb 0.00 in0.0 mm 0.00 in0.0 mm 0.00 in0.0 mm
11:15 AM 85.8°F29.9°C 73.6°F23.1°C 67% 6.0 mph ENE9.7 kmh ENE 11.0 mph17.7 kmh 29.94 in1013.9 mb 0.00 in0.0 mm 0.00 in0.0 mm 0.00 in0.0 mm
11:20 AM 86.0°F30.0°C 73.2°F22.9°C 66% 6.0 mph NE9.7 kmh NE 8.9 mph14.3 kmh 29.94 in1013.9 mb 0.00 in0.0 mm 0.00 in0.0 mm 0.00 in0.0 mm
11:25 AM 85.5°F29.7°C 73.2°F22.9°C 67% 6.0 mph NE9.7 kmh NE 10.1 mph16.3 kmh 29.94 in1013.9 mb 0.00 in0.0 mm 0.00 in0.0 mm 0.00 in0.0 mm
11:30 AM 85.3°F29.6°C 73.0°F22.8°C 67% 6.9 mph NNE11.1 kmh NNE 12.1 mph19.5 kmh 29.95 in1014.2 mb 0.00 in0.0 mm 0.00 in0.0 mm 0.00 in0.0 mm
11:35 AM 85.3°F29.6°C 73.6°F23.1°C 68% 6.9 mph N11.1 kmh N 13.0 mph20.9 kmh 29.94 in1013.9 mb 0.00 in0.0 mm 0.00 in0.0 mm 0.00 in0.0 mm
11:40 AM 85.5°F29.7°C 73.8°F23.2°C 68% 6.9 mph N11.1 kmh N 11.0 mph17.7 kmh 29.95 in1014.2 mb 0.00 in0.0 mm 0.00 in0.0 mm 0.00 in0.0 mm
11:45 AM 85.5°F29.7°C 73.8°F23.2°C 68% 6.9 mph N11.1 kmh N 12.1 mph19.5 kmh 29.94 in1013.9 mb 0.00 in0.0 mm 0.00 in0.0 mm 0.00 in0.0 mm
11:51 AM 85.5°F29.7°C 73.8°F23.2°C 68% 8.1 mph N13.0 kmh N 12.1 mph19.5 kmh 29.94 in1013.9 mb 0.00 in0.0 mm 0.00 in0.0 mm 0.00 in0.0 mm
11:56 AM 85.1°F29.5°C 73.8°F23.2°C 69% 8.1 mph ENE13.0 kmh ENE 12.1 mph19.5 kmh 29.94 in1013.9 mb 0.00 in0.0 mm 0.00 in0.0 mm 0.00 in0.0 mm
12:01 PM 85.3°F29.6°C 73.9°F23.3°C 69% 8.1 mph NE13.0 kmh NE 12.1 mph19.5 kmh 29.94 in1013.9 mb 0.00 in0.0 mm 0.00 in0.0 mm 0.00 in0.0 mm
12:06 PM 85.6°F29.8°C 73.9°F23.3°C 68% 6.9 mph N11.1 kmh N 12.1 mph19.5 kmh 29.94 in1013.9 mb 0.00 in0.0 mm 0.00 in0.0 mm 0.00 in0.0 mm
12:11 PM 85.5°F29.7°C 74.1°F23.4°C 69% 6.9 mph N11.1 kmh N 13.0 mph20.9 kmh 29.94 in1013.9 mb 0.00 in0.0 mm 0.00 in0.0 mm 0.00 in0.0 mm
12:16 PM 85.5°F29.7°C 74.1°F23.4°C 69% 8.1 mph NNE13.0 kmh NNE 12.1 mph19.5 kmh 29.94 in1013.9 mb 0.00 in0.0 mm 0.00 in0.0 mm 0.00 in0.0 mm
12:21 PM 85.3°F29.6°C 73.9°F23.3°C 69% 8.1 mph NNW13.0 kmh NNW 13.0 mph20.9 kmh 29.94 in1013.9 mb 0.00 in0.0 mm 0.00 in0.0 mm 0.00 in0.0 mm
12:26 PM 85.5°F29.7°C 74.1°F23.4°C 69% 6.9 mph NNW11.1 kmh NNW 8.9 mph14.3 kmh 29.93 in1013.5 mb 0.00 in0.0 mm 0.00 in0.0 mm 0.00 in0.0 mm
12:31 PM 85.6°F29.8°C 73.9°F23.3°C 68% 6.0 mph NNE9.7 kmh NNE 11.0 mph17.7 kmh 29.93 in1013.5 mb 0.00 in0.0 mm 0.00 in0.0 mm 0.00 in0.0 mm
12:36 PM 85.8°F29.9°C 74.5°F23.6°C 69% 6.0 mph NE9.7 kmh NE 11.0 mph17.7 kmh 29.93 in1013.5 mb 0.00 in0.0 mm 0.00 in0.0 mm 0.00 in0.0 mm
12:41 PM 86.2°F30.1°C 74.3°F23.5°C 68% 4.9 mph NW7.9 kmh NW 8.9 mph14.3 kmh 29.93 in1013.5 mb 0.00 in0.0 mm 0.00 in0.0 mm 0.00 in0.0 mm
12:46 PM 86.5°F30.3°C 74.3°F23.5°C 67% 4.9 mph ENE7.9 kmh ENE 10.1 mph16.3 kmh 29.93 in1013.5 mb 0.00 in0.0 mm 0.00 in0.0 mm 0.00 in0.0 mm
12:51 PM 86.2°F30.1°C 73.9°F23.3°C 67% 6.0 mph N9.7 kmh N 10.1 mph16.3 kmh 29.93 in1013.5 mb 0.00 in0.0 mm 0.00 in0.0 mm 0.00 in0.0 mm
12:56 PM 86.4°F30.2°C 74.5°F23.6°C 68% 6.0 mph NE9.7 kmh NE 10.1 mph16.3 kmh 29.93 in1013.5 mb 0.00 in0.0 mm 0.00 in0.0 mm 0.00 in0.0 mm
01:01 PM 86.7°F30.4°C 74.8°F23.8°C 68% 6.0 mph N9.7 kmh N 8.9 mph14.3 kmh 29.93 in1013.5 mb 0.00 in0.0 mm 0.00 in0.0 mm 0.00 in0.0 mm
01:06 PM 87.3°F30.7°C 75.0°F23.9°C 67% 4.9 mph N7.9 kmh N 11.0 mph17.7 kmh 29.93 in1013.5 mb 0.00 in0.0 mm 0.00 in0.0 mm 0.00 in0.0 mm
01:11 PM 86.5°F30.3°C 74.3°F23.5°C 67% 4.9 mph NE7.9 kmh NE 11.0 mph17.7 kmh 29.93 in1013.5 mb 0.00 in0.0 mm 0.00 in0.0 mm 0.00 in0.0 mm
01:16 PM 86.0°F30.0°C 74.1°F23.4°C 68% 6.0 mph NNE9.7 kmh NNE 11.0 mph17.7 kmh 29.92 in1013.2 mb 0.00 in0.0 mm 0.00 in0.0 mm 0.00 in0.0 mm
01:21 PM 85.8°F29.9°C 73.9°F23.3°C 68% 6.0 mph NE9.7 kmh NE 10.1 mph16.3 kmh 29.92 in1013.2 mb 0.00 in0.0 mm 0.00 in0.0 mm 0.00 in0.0 mm
01:26 PM 86.0°F30.0°C 74.1°F23.4°C 68% 6.0 mph NE9.7 kmh NE 10.1 mph16.3 kmh 29.93 in1013.5 mb 0.00 in0.0 mm 0.00 in0.0 mm 0.00 in0.0 mm
01:31 PM 86.2°F30.1°C 73.9°F23.3°C 67% 6.0 mph NNE9.7 kmh NNE 11.0 mph17.7 kmh 29.93 in1013.5 mb 0.00 in0.0 mm 0.00 in0.0 mm 0.00 in0.0 mm
01:36 PM 86.4°F30.2°C 74.1°F23.4°C 67% 6.0 mph NE9.7 kmh NE 11.0 mph17.7 kmh 29.92 in1013.2 mb 0.00 in0.0 mm 0.00 in0.0 mm 0.00 in0.0 mm
01:41 PM 86.2°F30.1°C 73.9°F23.3°C 67% 6.0 mph NNW9.7 kmh NNW 10.1 mph16.3 kmh 29.92 in1013.2 mb 0.00 in0.0 mm 0.00 in0.0 mm 0.00 in0.0 mm
01:46 PM 86.5°F30.3°C 74.3°F23.5°C 67% 6.0 mph NNE9.7 kmh NNE 11.0 mph17.7 kmh 29.92 in1013.2 mb 0.00 in0.0 mm 0.00 in0.0 mm 0.00 in0.0 mm
01:51 PM 87.1°F30.6°C 75.2°F24.0°C 68% 4.9 mph NE7.9 kmh NE 8.9 mph14.3 kmh 29.92 in1013.2 mb 0.00 in0.0 mm 0.00 in0.0 mm 0.00 in0.0 mm
01:56 PM 87.1°F30.6°C 74.8°F23.8°C 67% 4.9 mph 7.9 kmh 11.0 mph17.7 kmh 29.92 in1013.2 mb 0.00 in0.0 mm 0.00 in0.0 mm 0.00 in0.0 mm
02:01 PM 87.1°F30.6°C 74.8°F23.8°C 67% 6.0 mph N9.7 kmh N 10.1 mph16.3 kmh 29.92 in1013.2 mb 0.00 in0.0 mm 0.00 in0.0 mm 0.00 in0.0 mm
02:06 PM 86.7°F30.4°C 74.8°F23.8°C 68% 6.0 mph N9.7 kmh N 11.0 mph17.7 kmh 29.91 in1012.9 mb 0.00 in0.0 mm 0.00 in0.0 mm 0.00 in0.0 mm
02:11 PM 86.5°F30.3°C 74.7°F23.7°C 68% 6.9 mph NE11.1 kmh NE 12.1 mph19.5 kmh 29.91 in1012.9 mb 0.00 in0.0 mm 0.00 in0.0 mm 0.00 in0.0 mm
02:16 PM 86.5°F30.3°C 74.7°F23.7°C 68% 6.0 mph 9.7 kmh 12.1 mph19.5 kmh 29.91 in1012.9 mb 0.00 in0.0 mm 0.00 in0.0 mm 0.00 in0.0 mm
02:21 PM 86.5°F30.3°C 75.2°F24.0°C 69% 6.0 mph NE9.7 kmh NE 11.0 mph17.7 kmh 29.91 in1012.9 mb 0.00 in0.0 mm 0.00 in0.0 mm 0.00 in0.0 mm
02:26 PM 86.5°F30.3°C 75.2°F24.0°C 69% 6.0 mph NE9.7 kmh NE 10.1 mph16.3 kmh 29.91 in1012.9 mb 0.00 in0.0 mm 0.00 in0.0 mm 0.00 in0.0 mm
02:31 PM 86.7°F30.4°C 75.4°F24.1°C 69% 6.0 mph N9.7 kmh N 8.9 mph14.3 kmh 29.91 in1012.9 mb 0.00 in0.0 mm 0.00 in0.0 mm 0.00 in0.0 mm
02:36 PM 86.7°F30.4°C 74.8°F23.8°C 68% 4.9 mph N7.9 kmh N 10.1 mph16.3 kmh 29.91 in1012.9 mb 0.00 in0.0 mm 0.00 in0.0 mm 0.00 in0.0 mm
02:41 PM 86.5°F30.3°C 74.7°F23.7°C 68% 4.9 mph 7.9 kmh 8.9 mph14.3 kmh 29.91 in1012.9 mb 0.00 in0.0 mm 0.00 in0.0 mm 0.00 in0.0 mm
02:46 PM 85.8°F29.9°C 74.5°F23.6°C 69% 6.0 mph NE9.7 kmh NE 8.9 mph14.3 kmh 29.91 in1012.9 mb 0.00 in0.0 mm 0.00 in0.0 mm 0.00 in0.0 mm
02:51 PM 85.6°F29.8°C 73.9°F23.3°C 68% 6.0 mph N9.7 kmh N 11.0 mph17.7 kmh 29.91 in1012.9 mb 0.00 in0.0 mm 0.00 in0.0 mm 0.00 in0.0 mm
02:56 PM 85.8°F29.9°C 73.9°F23.3°C 68% 6.0 mph 9.7 kmh 8.9 mph14.3 kmh 29.91 in1012.9 mb 0.00 in0.0 mm 0.00 in0.0 mm 0.00 in0.0 mm
03:01 PM 86.5°F30.3°C 74.3°F23.5°C 67% 4.9 mph NNE7.9 kmh NNE 8.1 mph13.0 kmh 29.91 in1012.9 mb 0.00 in0.0 mm 0.00 in0.0 mm 0.00 in0.0 mm
03:06 PM 86.9°F30.5°C 75.6°F24.2°C 69% 4.0 mph NE6.4 kmh NE 9.0 mph14.5 kmh 29.91 in1012.9 mb 0.00 in0.0 mm 0.00 in0.0 mm 0.00 in0.0 mm
03:11 PM 86.4°F30.2°C 75.0°F23.9°C 69% 4.9 mph NE7.9 kmh NE 8.9 mph14.3 kmh 29.91 in1012.9 mb 0.00 in0.0 mm 0.00 in0.0 mm 0.00 in0.0 mm
03:16 PM 86.4°F30.2°C 75.0°F23.9°C 69% 4.9 mph N7.9 kmh N 8.9 mph14.3 kmh 29.91 in1012.9 mb 0.00 in0.0 mm 0.00 in0.0 mm 0.00 in0.0 mm
03:21 PM 86.5°F30.3°C 73.8°F23.2°C 66% 4.9 mph N7.9 kmh N 8.1 mph13.0 kmh 29.90 in1012.5 mb 0.00 in0.0 mm 0.00 in0.0 mm 0.00 in0.0 mm
03:26 PM 86.5°F30.3°C 72.9°F22.7°C 64% 4.9 mph NNE7.9 kmh NNE 8.9 mph14.3 kmh 29.90 in1012.5 mb 0.00 in0.0 mm 0.00 in0.0 mm 0.00 in0.0 mm
03:31 PM 86.2°F30.1°C 72.1°F22.3°C 63% 4.9 mph N7.9 kmh N 8.9 mph14.3 kmh 29.90 in1012.5 mb 0.00 in0.0 mm 0.00 in0.0 mm 0.00 in0.0 mm
03:36 PM 86.4°F30.2°C 72.3°F22.4°C 63% 4.9 mph NNE7.9 kmh NNE 8.1 mph13.0 kmh 29.90 in1012.5 mb 0.00 in0.0 mm 0.00 in0.0 mm 0.00 in0.0 mm
03:41 PM 86.5°F30.3°C 72.5°F22.5°C 63% 4.0 mph NNW6.4 kmh NNW 8.1 mph13.0 kmh 29.90 in1012.5 mb 0.00 in0.0 mm 0.00 in0.0 mm 0.00 in0.0 mm
03:46 PM 86.7°F30.4°C 73.0°F22.8°C 64% 4.0 mph N6.4 kmh N 6.9 mph11.1 kmh 29.90 in1012.5 mb 0.00 in0.0 mm 0.00 in0.0 mm 0.00 in0.0 mm
03:51 PM 87.4°F30.8°C 74.3°F23.5°C 65% 2.9 mph NNE4.7 kmh NNE 6.0 mph9.7 kmh 29.90 in1012.5 mb 0.00 in0.0 mm 0.00 in0.0 mm 0.00 in0.0 mm
03:56 PM 87.4°F30.8°C 74.3°F23.5°C 65% 2.9 mph NE4.7 kmh NE 6.0 mph9.7 kmh 29.90 in1012.5 mb 0.00 in0.0 mm 0.00 in0.0 mm 0.00 in0.0 mm
04:01 PM 87.3°F30.7°C 72.7°F22.6°C 62% 2.9 mph NNE4.7 kmh NNE 6.0 mph9.7 kmh 29.90 in1012.5 mb 0.00 in0.0 mm 0.00 in0.0 mm 0.00 in0.0 mm
04:06 PM 87.6°F30.9°C 73.4°F23.0°C 63% 2.9 mph N4.7 kmh N 7.0 mph11.3 kmh 29.90 in1012.5 mb 0.00 in0.0 mm 0.00 in0.0 mm 0.00 in0.0 mm
04:11 PM 87.4°F30.8°C 73.2°F22.9°C 63% 4.0 mph NNW6.4 kmh NNW 6.9 mph11.1 kmh 29.90 in1012.5 mb 0.00 in0.0 mm 0.00 in0.0 mm 0.00 in0.0 mm
04:16 PM 87.1°F30.6°C 73.9°F23.3°C 65% 4.0 mph N6.4 kmh N 8.9 mph14.3 kmh 29.90 in1012.5 mb 0.00 in0.0 mm 0.00 in0.0 mm 0.00 in0.0 mm
04:21 PM 86.7°F30.4°C 74.5°F23.6°C 67% 4.0 mph NE6.4 kmh NE 10.1 mph16.3 kmh 29.90 in1012.5 mb 0.00 in0.0 mm 0.00 in0.0 mm 0.00 in0.0 mm
04:26 PM 86.2°F30.1°C 74.8°F23.8°C 69% 4.9 mph N7.9 kmh N 10.1 mph16.3 kmh 29.90 in1012.5 mb 0.00 in0.0 mm 0.00 in0.0 mm 0.00 in0.0 mm
04:31 PM 86.2°F30.1°C 74.8°F23.8°C 69% 4.9 mph N7.9 kmh N 8.9 mph14.3 kmh 29.90 in1012.5 mb 0.00 in0.0 mm 0.00 in0.0 mm 0.00 in0.0 mm
04:36 PM 86.4°F30.2°C 75.0°F23.9°C 69% 4.0 mph NNE6.4 kmh NNE 8.9 mph14.3 kmh 29.90 in1012.5 mb 0.00 in0.0 mm 0.00 in0.0 mm 0.00 in0.0 mm
04:41 PM 86.2°F30.1°C 74.8°F23.8°C 69% 4.9 mph NE7.9 kmh NE 8.1 mph13.0 kmh 29.90 in1012.5 mb 0.00 in0.0 mm 0.00 in0.0 mm 0.00 in0.0 mm
04:46 PM 86.2°F30.1°C 75.2°F24.0°C 70% 4.9 mph N7.9 kmh N 8.1 mph13.0 kmh 29.90 in1012.5 mb 0.00 in0.0 mm 0.00 in0.0 mm 0.00 in0.0 mm
04:51 PM 86.2°F30.1°C 75.2°F24.0°C 70% 4.0 mph N6.4 kmh N 8.1 mph13.0 kmh 29.90 in1012.5 mb 0.00 in0.0 mm 0.00 in0.0 mm 0.00 in0.0 mm
04:56 PM 86.2°F30.1°C 74.8°F23.8°C 69% 4.0 mph N6.4 kmh N 8.1 mph13.0 kmh 29.90 in1012.5 mb 0.00 in0.0 mm 0.00 in0.0 mm 0.00 in0.0 mm
05:01 PM 86.2°F30.1°C 74.8°F23.8°C 69% 4.0 mph N6.4 kmh N 8.1 mph13.0 kmh 29.90 in1012.5 mb 0.00 in0.0 mm 0.00 in0.0 mm 0.00 in0.0 mm
05:06 PM 86.2°F30.1°C 74.8°F23.8°C 69% 4.0 mph NE6.4 kmh NE 9.0 mph14.5 kmh 29.90 in1012.5 mb 0.00 in0.0 mm 0.00 in0.0 mm 0.00 in0.0 mm
05:11 PM 85.8°F29.9°C 74.5°F23.6°C 69% 4.0 mph NE6.4 kmh NE 8.9 mph14.3 kmh 29.90 in1012.5 mb 0.00 in0.0 mm 0.00 in0.0 mm 0.00 in0.0 mm
05:16 PM 85.8°F29.9°C 74.5°F23.6°C 69% 4.0 mph N6.4 kmh N 8.1 mph13.0 kmh 29.90 in1012.5 mb 0.00 in0.0 mm 0.00 in0.0 mm 0.00 in0.0 mm
05:21 PM 85.6°F29.8°C 74.7°F23.7°C 70% 4.0 mph N6.4 kmh N 8.9 mph14.3 kmh 29.90 in1012.5 mb 0.00 in0.0 mm 0.00 in0.0 mm 0.00 in0.0 mm
05:26 PM 85.6°F29.8°C 75.2°F24.0°C 71% 4.0 mph NE6.4 kmh NE 8.1 mph13.0 kmh 29.90 in1012.5 mb 0.00 in0.0 mm 0.00 in0.0 mm 0.00 in0.0 mm
05:31 PM 85.5°F29.7°C 75.0°F23.9°C 71% 4.0 mph N6.4 kmh N 6.9 mph11.1 kmh 29.90 in1012.5 mb 0.00 in0.0 mm 0.00 in0.0 mm 0.00 in0.0 mm
05:36 PM 85.5°F29.7°C 74.5°F23.6°C 70% 4.0 mph 6.4 kmh 4.9 mph7.9 kmh 29.89 in1012.2 mb 0.00 in0.0 mm 0.00 in0.0 mm 0.00 in0.0 mm
05:41 PM 85.6°F29.8°C 74.7°F23.7°C 70% 2.9 mph NNE4.7 kmh NNE 4.9 mph7.9 kmh 29.89 in1012.2 mb 0.00 in0.0 mm 0.00 in0.0 mm 0.00 in0.0 mm
05:46 PM 85.6°F29.8°C 74.7°F23.7°C 70% 2.9 mph NE4.7 kmh NE 6.9 mph11.1 kmh 29.89 in1012.2 mb 0.00 in0.0 mm 0.00 in0.0 mm 0.00 in0.0 mm
05:51 PM 85.8°F29.9°C 74.8°F23.8°C 70% 2.9 mph N4.7 kmh N 6.0 mph9.7 kmh 29.89 in1012.2 mb 0.00 in0.0 mm 0.00 in0.0 mm 0.00 in0.0 mm
05:56 PM 85.8°F29.9°C 74.8°F23.8°C 70% 2.9 mph N4.7 kmh N 4.9 mph7.9 kmh 29.89 in1012.2 mb 0.00 in0.0 mm 0.00 in0.0 mm 0.00 in0.0 mm
06:01 PM 85.6°F29.8°C 73.9°F23.3°C 68% 2.9 mph NE4.7 kmh NE 4.9 mph7.9 kmh 29.89 in1012.2 mb 0.00 in0.0 mm 0.00 in0.0 mm 0.00 in0.0 mm
06:06 PM 85.5°F29.7°C 74.1°F23.4°C 69% 2.9 mph NE4.7 kmh NE 8.1 mph13.0 kmh 29.89 in1012.2 mb 0.00 in0.0 mm 0.00 in0.0 mm 0.00 in0.0 mm
06:11 PM 85.3°F29.6°C 73.9°F23.3°C 69% 4.0 mph N6.4 kmh N 8.1 mph13.0 kmh 29.89 in1012.2 mb 0.00 in0.0 mm 0.00 in0.0 mm 0.00 in0.0 mm
06:16 PM 85.3°F29.6°C 74.3°F23.5°C 70% 2.9 mph NE4.7 kmh NE 6.0 mph9.7 kmh 29.89 in1012.2 mb 0.00 in0.0 mm 0.00 in0.0 mm 0.00 in0.0 mm
06:21 PM 85.3°F29.6°C 74.3°F23.5°C 70% 2.0 mph N3.2 kmh N 4.9 mph7.9 kmh 29.89 in1012.2 mb 0.00 in0.0 mm 0.00 in0.0 mm 0.00 in0.0 mm
06:26 PM 85.1°F29.5°C 74.1°F23.4°C 70% 2.0 mph N3.2 kmh N 4.9 mph7.9 kmh 29.89 in1012.2 mb 0.00 in0.0 mm 0.00 in0.0 mm 0.00 in0.0 mm
06:31 PM 85.3°F29.6°C 73.9°F23.3°C 69% 2.0 mph N3.2 kmh N 4.9 mph7.9 kmh 29.89 in1012.2 mb 0.00 in0.0 mm 0.00 in0.0 mm 0.00 in0.0 mm
06:36 PM 85.1°F29.5°C 72.9°F22.7°C 67% 2.0 mph WSW3.2 kmh WSW 6.0 mph9.7 kmh 29.89 in1012.2 mb 0.00 in0.0 mm 0.00 in0.0 mm 0.00 in0.0 mm
06:41 PM 85.3°F29.6°C 72.1°F22.3°C 65% 2.0 mph NW3.2 kmh NW 4.0 mph6.4 kmh 29.89 in1012.2 mb 0.00 in0.0 mm 0.00 in0.0 mm 0.00 in0.0 mm
06:46 PM 85.5°F29.7°C 71.4°F21.9°C 63% 2.0 mph NNW3.2 kmh NNW 4.0 mph6.4 kmh 29.89 in1012.2 mb 0.00 in0.0 mm 0.00 in0.0 mm 0.00 in0.0 mm
06:51 PM 85.6°F29.8°C 70.7°F21.5°C 61% 2.0 mph NNW3.2 kmh NNW 2.9 mph4.7 kmh 29.89 in1012.2 mb 0.00 in0.0 mm 0.00 in0.0 mm 0.00 in0.0 mm
06:56 PM 85.8°F29.9°C 69.8°F21.0°C 59% 0.9 mph NNW1.4 kmh NNW 2.9 mph4.7 kmh 29.89 in1012.2 mb 0.00 in0.0 mm 0.00 in0.0 mm 0.00 in0.0 mm
07:01 PM 86.0°F30.0°C 71.1°F21.7°C 61% 0.9 mph NNW1.4 kmh NNW 2.9 mph4.7 kmh 29.89 in1012.2 mb 0.00 in0.0 mm 0.00 in0.0 mm 0.00 in0.0 mm
07:06 PM 85.8°F29.9°C 71.2°F21.8°C 62% 2.0 mph NNW3.2 kmh NNW 2.9 mph4.7 kmh 29.89 in1012.2 mb 0.00 in0.0 mm 0.00 in0.0 mm 0.00 in0.0 mm
07:11 PM 85.5°F29.7°C 72.3°F22.4°C 65% 2.0 mph NE3.2 kmh NE 6.0 mph9.7 kmh 29.89 in1012.2 mb 0.00 in0.0 mm 0.00 in0.0 mm 0.00 in0.0 mm
07:16 PM 85.3°F29.6°C 73.9°F23.3°C 69% 2.9 mph NE4.7 kmh NE 4.9 mph7.9 kmh 29.90 in1012.5 mb 0.00 in0.0 mm 0.00 in0.0 mm 0.00 in0.0 mm
07:21 PM 84.9°F29.4°C 74.1°F23.4°C 70% 2.0 mph NE3.2 kmh NE 4.0 mph6.4 kmh 29.90 in1012.5 mb 0.00 in0.0 mm 0.00 in0.0 mm 0.00 in0.0 mm
07:26 PM 84.7°F29.3°C 74.3°F23.5°C 71% 0.9 mph NE1.4 kmh NE 2.0 mph3.2 kmh 29.90 in1012.5 mb 0.00 in0.0 mm 0.00 in0.0 mm 0.00 in0.0 mm
07:31 PM 84.2°F29.0°C 73.8°F23.2°C 71% 0.9 mph NE1.4 kmh NE 2.9 mph4.7 kmh 29.90 in1012.5 mb 0.00 in0.0 mm 0.00 in0.0 mm 0.00 in0.0 mm
07:36 PM 83.7°F28.7°C 72.3°F22.4°C 69% Calm Calm 2.9 mph4.7 kmh 29.90 in1012.5 mb 0.00 in0.0 mm 0.00 in0.0 mm 0.00 in0.0 mm
07:41 PM 83.5°F28.6°C 70.9°F21.6°C 66% 0.9 mph SW1.4 kmh SW 4.0 mph6.4 kmh 29.90 in1012.5 mb 0.00 in0.0 mm 0.00 in0.0 mm 0.00 in0.0 mm
07:46 PM 83.5°F28.6°C 68.5°F20.3°C 61% 2.9 mph SW4.7 kmh SW 6.0 mph9.7 kmh 29.90 in1012.5 mb 0.00 in0.0 mm 0.00 in0.0 mm 0.00 in0.0 mm
07:51 PM 83.5°F28.6°C 68.2°F20.1°C 60% 4.0 mph SW6.4 kmh SW 4.9 mph7.9 kmh 29.91 in1012.9 mb 0.00 in0.0 mm 0.00 in0.0 mm 0.00 in0.0 mm
07:56 PM 83.8°F28.8°C 68.5°F20.3°C 60% 2.0 mph SW3.2 kmh SW 2.9 mph4.7 kmh 29.91 in1012.9 mb 0.00 in0.0 mm 0.00 in0.0 mm 0.00 in0.0 mm
08:01 PM 84.0°F28.9°C 68.2°F20.1°C 59% 0.9 mph SW1.4 kmh SW 2.0 mph3.2 kmh 29.91 in1012.9 mb 0.00 in0.0 mm 0.00 in0.0 mm 0.00 in0.0 mm
08:06 PM 84.0°F28.9°C 67.6°F19.8°C 58% 0.9 mph SW1.4 kmh SW 2.0 mph3.2 kmh 29.91 in1012.9 mb 0.00 in0.0 mm 0.00 in0.0 mm 0.00 in0.0 mm
08:11 PM 84.2°F29.0°C 67.3°F19.6°C 57% Calm Calm -- 29.91 in1012.9 mb 0.00 in0.0 mm 0.00 in0.0 mm 0.00 in0.0 mm
08:16 PM 84.4°F29.1°C 66.9°F19.4°C 56% Calm Calm -- 29.91 in1012.9 mb 0.00 in0.0 mm 0.00 in0.0 mm 0.00 in0.0 mm
08:21 PM 84.4°F29.1°C 66.9°F19.4°C 56% Calm Calm -- 29.91 in1012.9 mb 0.00 in0.0 mm 0.00 in0.0 mm 0.00 in0.0 mm
08:26 PM 84.6°F29.2°C 67.1°F19.5°C 56% Calm Calm -- 29.91 in1012.9 mb 0.00 in0.0 mm 0.00 in0.0 mm 0.00 in0.0 mm
08:31 PM 84.6°F29.2°C 66.6°F19.2°C 55% Calm Calm -- 29.91 in1012.9 mb 0.00 in0.0 mm 0.00 in0.0 mm 0.00 in0.0 mm
08:36 PM 84.6°F29.2°C 67.6°F19.8°C 57% Calm Calm 0.9 mph1.4 kmh 29.91 in1012.9 mb 0.00 in0.0 mm 0.00 in0.0 mm 0.00 in0.0 mm
08:41 PM 84.6°F29.2°C 70.2°F21.2°C 62% Calm Calm 2.9 mph4.7 kmh 29.91 in1012.9 mb 0.00 in0.0 mm 0.00 in0.0 mm 0.00 in0.0 mm
08:46 PM 84.2°F29.0°C 69.8°F21.0°C 62% Calm Calm 0.9 mph1.4 kmh 29.91 in1012.9 mb 0.00 in0.0 mm 0.00 in0.0 mm 0.00 in0.0 mm
08:51 PM 83.8°F28.8°C 69.4°F20.8°C 62% Calm Calm 0.9 mph1.4 kmh 29.91 in1012.9 mb 0.00 in0.0 mm 0.00 in0.0 mm 0.00 in0.0 mm
08:56 PM 83.7°F28.7°C 67.3°F19.6°C 58% 0.9 mph SW1.4 kmh SW 2.9 mph4.7 kmh 29.91 in1012.9 mb 0.00 in0.0 mm 0.00 in0.0 mm 0.00 in0.0 mm
09:01 PM 83.5°F28.6°C 66.2°F19.0°C 56% 0.9 mph SW1.4 kmh SW 2.9 mph4.7 kmh 29.91 in1012.9 mb 0.00 in0.0 mm 0.00 in0.0 mm 0.00 in0.0 mm
09:06 PM 83.3°F28.5°C 66.0°F18.9°C 56% 0.9 mph SW1.4 kmh SW 2.9 mph4.7 kmh 29.91 in1012.9 mb 0.00 in0.0 mm 0.00 in0.0 mm 0.00 in0.0 mm
09:11 PM 83.1°F28.4°C 65.8°F18.8°C 56% Calm Calm 0.9 mph1.4 kmh 29.91 in1012.9 mb 0.00 in0.0 mm 0.00 in0.0 mm 0.00 in0.0 mm
09:16 PM 83.5°F28.6°C 66.2°F19.0°C 56% Calm Calm 2.9 mph4.7 kmh 29.91 in1012.9 mb 0.00 in0.0 mm 0.00 in0.0 mm 0.00 in0.0 mm
09:21 PM 83.5°F28.6°C 66.6°F19.2°C 57% 0.9 mph SW1.4 kmh SW 2.9 mph4.7 kmh 29.91 in1012.9 mb 0.00 in0.0 mm 0.00 in0.0 mm 0.00 in0.0 mm
09:26 PM 83.3°F28.5°C 66.6°F19.2°C 57% 2.0 mph NW3.2 kmh NW 4.0 mph6.4 kmh 29.91 in1012.9 mb 0.00 in0.0 mm 0.00 in0.0 mm 0.00 in0.0 mm
09:31 PM 82.9°F28.3°C 66.6°F19.2°C 58% 0.9 mph NW1.4 kmh NW 2.9 mph4.7 kmh 29.92 in1013.2 mb 0.00 in0.0 mm 0.00 in0.0 mm 0.00 in0.0 mm
09:36 PM 82.8°F28.2°C 66.6°F19.2°C 58% 2.0 mph N3.2 kmh N 4.0 mph6.4 kmh 29.92 in1013.2 mb 0.00 in0.0 mm 0.00 in0.0 mm 0.00 in0.0 mm
09:41 PM 82.8°F28.2°C 66.6°F19.2°C 58% 2.0 mph N3.2 kmh N 4.0 mph6.4 kmh 29.92 in1013.2 mb 0.00 in0.0 mm 0.00 in0.0 mm 0.00 in0.0 mm
09:46 PM 82.6°F28.1°C 65.8°F18.8°C 57% 2.0 mph N3.2 kmh N 4.0 mph6.4 kmh 29.92 in1013.2 mb 0.00 in0.0 mm 0.00 in0.0 mm 0.00 in0.0 mm
09:51 PM 82.6°F28.1°C 66.4°F19.1°C 58% 2.0 mph NW3.2 kmh NW 4.0 mph6.4 kmh 29.92 in1013.2 mb 0.00 in0.0 mm 0.00 in0.0 mm 0.00 in0.0 mm
09:56 PM 82.6°F28.1°C 66.4°F19.1°C 58% 0.9 mph NW1.4 kmh NW 2.9 mph4.7 kmh 29.92 in1013.2 mb 0.00 in0.0 mm 0.00 in0.0 mm 0.00 in0.0 mm
10:01 PM 82.6°F28.1°C 65.8°F18.8°C 57% 0.9 mph NW1.4 kmh NW 2.9 mph4.7 kmh 29.92 in1013.2 mb 0.00 in0.0 mm 0.00 in0.0 mm 0.00 in0.0 mm
10:06 PM 82.8°F28.2°C 66.0°F18.9°C 57% 0.9 mph NW1.4 kmh NW 2.0 mph3.2 kmh 29.92 in1013.2 mb 0.00 in0.0 mm 0.00 in0.0 mm 0.00 in0.0 mm
10:11 PM 82.8°F28.2°C 66.0°F18.9°C 57% 0.9 mph NNW1.4 kmh NNW 4.0 mph6.4 kmh 29.92 in1013.2 mb 0.00 in0.0 mm 0.00 in0.0 mm 0.00 in0.0 mm
10:16 PM 82.2°F27.9°C 66.0°F18.9°C 58% 2.9 mph N4.7 kmh N 8.1 mph13.0 kmh 29.92 in1013.2 mb 0.00 in0.0 mm 0.00 in0.0 mm 0.00 in0.0 mm
10:21 PM 81.7°F27.6°C 66.0°F18.9°C 59% 2.9 mph NNW4.7 kmh NNW 4.9 mph7.9 kmh 29.93 in1013.5 mb 0.00 in0.0 mm 0.00 in0.0 mm 0.00 in0.0 mm
10:26 PM 81.1°F27.3°C 66.0°F18.9°C 60% 2.9 mph 4.7 kmh 8.9 mph14.3 kmh 29.93 in1013.5 mb 0.00 in0.0 mm 0.00 in0.0 mm 0.00 in0.0 mm
10:31 PM 80.4°F26.9°C 66.2°F19.0°C 62% 4.0 mph N6.4 kmh N 8.9 mph14.3 kmh 29.93 in1013.5 mb 0.00 in0.0 mm 0.00 in0.0 mm 0.00 in0.0 mm
10:36 PM 80.4°F26.9°C 66.2°F19.0°C 62% 4.0 mph NW6.4 kmh NW 4.9 mph7.9 kmh 29.93 in1013.5 mb 0.00 in0.0 mm 0.00 in0.0 mm 0.00 in0.0 mm
10:41 PM 80.4°F26.9°C 66.2°F19.0°C 62% 2.0 mph W3.2 kmh W 7.0 mph11.3 kmh 29.92 in1013.2 mb 0.00 in0.0 mm 0.00 in0.0 mm 0.00 in0.0 mm
10:46 PM 80.4°F26.9°C 66.2°F19.0°C 62% 2.0 mph N3.2 kmh N 6.9 mph11.1 kmh 29.93 in1013.5 mb 0.00 in0.0 mm 0.00 in0.0 mm 0.00 in0.0 mm
10:51 PM 80.2°F26.8°C 66.0°F18.9°C 62% 2.0 mph NW3.2 kmh NW 4.9 mph7.9 kmh 29.92 in1013.2 mb 0.00 in0.0 mm 0.00 in0.0 mm 0.00 in0.0 mm
10:56 PM 80.2°F26.8°C 66.0°F18.9°C 62% 2.0 mph NW3.2 kmh NW 4.0 mph6.4 kmh 29.93 in1013.5 mb 0.00 in0.0 mm 0.00 in0.0 mm 0.00 in0.0 mm
11:01 PM 80.4°F26.9°C 66.2°F19.0°C 62% 2.0 mph NW3.2 kmh NW 4.0 mph6.4 kmh 29.93 in1013.5 mb 0.00 in0.0 mm 0.00 in0.0 mm 0.00 in0.0 mm
11:06 PM 80.2°F26.8°C 65.5°F18.6°C 61% 2.0 mph NW3.2 kmh NW 6.9 mph11.1 kmh 29.93 in1013.5 mb 0.00 in0.0 mm 0.00 in0.0 mm 0.00 in0.0 mm
11:11 PM 80.1°F26.7°C 65.8°F18.8°C 62% 2.0 mph NW3.2 kmh NW 6.0 mph9.7 kmh 29.93 in1013.5 mb 0.00 in0.0 mm 0.00 in0.0 mm 0.00 in0.0 mm
11:16 PM 79.9°F26.6°C 65.7°F18.7°C 62% 2.0 mph NW3.2 kmh NW 4.9 mph7.9 kmh 29.93 in1013.5 mb 0.00 in0.0 mm 0.00 in0.0 mm 0.00 in0.0 mm
11:21 PM 79.9°F26.6°C 65.7°F18.7°C 62% 2.0 mph NW3.2 kmh NW 4.0 mph6.4 kmh 29.92 in1013.2 mb 0.00 in0.0 mm 0.00 in0.0 mm 0.00 in0.0 mm
11:26 PM 79.9°F26.6°C 65.7°F18.7°C 62% 2.0 mph NW3.2 kmh NW 4.0 mph6.4 kmh 29.92 in1013.2 mb 0.00 in0.0 mm 0.00 in0.0 mm 0.00 in0.0 mm
11:31 PM 79.7°F26.5°C 65.5°F18.6°C 62% 0.9 mph NNW1.4 kmh NNW 2.0 mph3.2 kmh 29.92 in1013.2 mb 0.00 in0.0 mm 0.00 in0.0 mm 0.00 in0.0 mm
11:36 PM 79.7°F26.5°C 65.5°F18.6°C 62% 0.9 mph NW1.4 kmh NW 4.0 mph6.4 kmh 29.92 in1013.2 mb 0.00 in0.0 mm 0.00 in0.0 mm 0.00 in0.0 mm
11:41 PM 79.5°F26.4°C 65.3°F18.5°C 62% 0.9 mph N1.4 kmh N 5.0 mph8.0 kmh 29.92 in1013.2 mb 0.00 in0.0 mm 0.00 in0.0 mm 0.00 in0.0 mm
11:46 PM 79.3°F26.3°C 65.1°F18.4°C 62% 0.9 mph NW1.4 kmh NW 4.0 mph6.4 kmh 29.92 in1013.2 mb 0.00 in0.0 mm 0.00 in0.0 mm 0.00 in0.0 mm
11:51 PM 79.3°F26.3°C 65.7°F18.7°C 63% 2.0 mph NNW3.2 kmh NNW 4.0 mph6.4 kmh 29.92 in1013.2 mb 0.00 in0.0 mm 0.00 in0.0 mm 0.00 in0.0 mm
11:56 PM 79.3°F26.3°C 65.1°F18.4°C 62% 2.0 mph NW3.2 kmh NW 4.0 mph6.4 kmh 29.91 in1012.9 mb 0.00 in0.0 mm 0.00 in0.0 mm 0.00 in0.0 mm